createdAt,value
2023-03-19T00:00:41.722Z,43.34
2023-03-19T00:01:41.713Z,42.53
2023-03-19T00:02:41.683Z,43.34
2023-03-19T00:03:41.720Z,43.82
2023-03-19T00:04:41.645Z,42.05
2023-03-19T00:05:41.632Z,42.70
2023-03-19T00:06:41.622Z,42.70
2023-03-19T00:07:41.602Z,43.02
2023-03-19T00:08:41.589Z,41.25
2023-03-19T00:09:41.584Z,40.76
2023-03-19T00:10:41.562Z,43.34
2023-03-19T00:11:41.555Z,42.53
2023-03-19T00:12:41.586Z,43.02
2023-03-19T00:13:41.525Z,41.89
2023-03-19T00:14:41.516Z,42.37
2023-03-19T00:15:41.503Z,42.53
2023-03-19T00:16:41.545Z,42.86
2023-03-19T00:17:41.476Z,41.41
2023-03-19T00:18:41.467Z,47.05
2023-03-19T00:19:41.481Z,45.43
2023-03-19T00:20:41.437Z,44.15
2023-03-19T00:21:41.434Z,42.37
2023-03-19T00:22:41.432Z,42.05
2023-03-19T00:23:41.407Z,44.31
2023-03-19T00:24:41.385Z,44.47
2023-03-19T00:25:41.379Z,45.27
2023-03-19T00:26:41.361Z,44.47
2023-03-19T00:27:41.352Z,42.53
2023-03-19T00:28:41.344Z,46.72
2023-03-19T00:29:41.333Z,43.82
2023-03-19T00:30:41.337Z,43.34
2023-03-19T00:31:41.301Z,45.60
2023-03-19T00:32:41.322Z,44.47
2023-03-19T00:33:41.271Z,41.89
2023-03-19T00:34:41.259Z,44.15
2023-03-19T00:35:41.322Z,43.50
2023-03-19T00:36:41.233Z,42.37
2023-03-19T00:37:41.226Z,43.18
2023-03-19T00:38:41.218Z,41.25
2023-03-19T00:39:41.196Z,44.79
2023-03-19T00:40:41.185Z,44.79
2023-03-19T00:41:41.173Z,42.21
2023-03-19T00:42:41.159Z,43.34
2023-03-19T00:43:41.146Z,42.53
2023-03-19T00:44:41.139Z,43.98
2023-03-19T00:45:41.141Z,42.21
2023-03-19T00:46:41.107Z,43.66
2023-03-19T00:47:41.094Z,43.02
2023-03-19T00:48:41.081Z,41.41
2023-03-19T00:49:41.068Z,43.34
2023-03-19T00:50:41.055Z,44.15
2023-03-19T00:51:41.067Z,42.70
2023-03-19T00:52:41.032Z,46.72
2023-03-19T00:53:41.019Z,40.44
2023-03-19T00:54:41.006Z,43.82
2023-03-19T00:55:41.000Z,43.34
2023-03-19T00:56:40.986Z,41.57
2023-03-19T00:57:40.968Z,43.34
2023-03-19T00:58:41.019Z,45.11
2023-03-19T00:59:40.947Z,42.86
2023-03-19T01:00:40.930Z,41.41
2023-03-19T01:01:40.999Z,43.02
2023-03-19T01:02:40.900Z,40.28
2023-03-19T01:03:40.890Z,44.79
2023-03-19T01:04:40.930Z,40.92
2023-03-19T01:05:40.867Z,43.98
2023-03-19T01:06:40.848Z,42.86
2023-03-19T01:07:40.969Z,41.41
2023-03-19T01:08:40.826Z,42.70
2023-03-19T01:09:40.810Z,43.02
2023-03-19T01:10:40.795Z,40.44
2023-03-19T01:11:40.784Z,42.53
2023-03-19T01:12:40.777Z,41.57
2023-03-19T01:13:40.758Z,41.89
2023-03-19T01:14:40.749Z,43.66
2023-03-19T01:15:40.733Z,41.08
2023-03-19T01:16:40.722Z,44.79
2023-03-19T01:17:40.706Z,41.57
2023-03-19T01:18:40.697Z,41.73
2023-03-19T01:19:40.681Z,44.63
2023-03-19T01:20:40.678Z,40.60
2023-03-19T01:21:40.657Z,41.25
2023-03-19T01:22:40.644Z,40.76
2023-03-19T01:23:40.730Z,43.66
2023-03-19T01:24:40.622Z,43.66
2023-03-19T01:25:40.609Z,42.21
2023-03-19T01:26:40.615Z,43.66
2023-03-19T01:27:40.583Z,43.66
2023-03-19T01:28:40.567Z,40.60
2023-03-19T01:29:40.564Z,42.37
2023-03-19T01:30:40.544Z,43.66
2023-03-19T01:31:40.529Z,43.82
2023-03-19T01:32:40.534Z,42.05
2023-03-19T01:33:40.506Z,40.76
2023-03-19T01:34:40.492Z,40.76
2023-03-19T01:35:40.505Z,42.21
2023-03-19T01:36:40.467Z,42.05
2023-03-19T01:37:40.465Z,42.70
2023-03-19T01:38:40.437Z,42.53
2023-03-19T01:39:40.468Z,40.76
2023-03-19T01:40:40.414Z,43.18
2023-03-19T01:41:40.401Z,42.70
2023-03-19T01:42:40.389Z,44.79
2023-03-19T01:43:40.380Z,42.37
2023-03-19T01:44:40.362Z,43.50
2023-03-19T01:45:40.350Z,41.25
2023-03-19T01:46:40.490Z,39.96
2023-03-19T01:47:40.324Z,42.21
2023-03-19T01:48:40.399Z,40.44
2023-03-19T01:49:40.303Z,41.57
2023-03-19T01:50:40.286Z,40.28
2023-03-19T01:51:40.273Z,41.89
2023-03-19T01:52:40.260Z,44.15
2023-03-19T01:53:40.253Z,42.86
2023-03-19T01:54:40.236Z,41.08
2023-03-19T01:55:40.246Z,41.25
2023-03-19T01:56:40.213Z,43.34
2023-03-19T01:57:40.199Z,42.86
2023-03-19T01:58:40.189Z,43.18
2023-03-19T01:59:40.167Z,41.41
2023-03-19T02:00:40.165Z,42.53
2023-03-19T02:01:40.161Z,41.73
2023-03-19T02:02:40.132Z,40.92
2023-03-19T02:03:40.117Z,41.08
2023-03-19T02:04:40.145Z,43.02
2023-03-19T02:05:40.093Z,42.21
2023-03-19T02:06:40.084Z,41.25
2023-03-19T02:07:40.071Z,43.18
2023-03-19T02:08:40.056Z,41.08
2023-03-19T02:09:40.043Z,40.28
2023-03-19T02:10:40.031Z,41.08
2023-03-19T02:11:40.042Z,41.73
2023-03-19T02:12:40.019Z,42.37
2023-03-19T02:13:40.011Z,41.41
2023-03-19T02:14:39.983Z,41.41
2023-03-19T02:15:39.973Z,41.57
2023-03-19T02:16:39.962Z,40.60
2023-03-19T02:17:39.944Z,41.08
2023-03-19T02:18:39.928Z,40.76
2023-03-19T02:19:39.913Z,40.76
2023-03-19T02:20:39.905Z,43.66
2023-03-19T02:21:39.892Z,42.05
2023-03-19T02:22:39.883Z,41.57
2023-03-19T02:23:39.868Z,41.89
2023-03-19T02:24:39.862Z,41.25
2023-03-19T02:25:39.839Z,42.37
2023-03-19T02:26:39.826Z,42.86
2023-03-19T02:27:41.051Z,40.76
2023-03-19T02:28:39.812Z,43.34
2023-03-19T02:29:39.795Z,44.15
2023-03-19T02:30:39.798Z,43.98
2023-03-19T02:31:39.824Z,41.57
2023-03-19T02:32:39.761Z,41.08
2023-03-19T02:33:39.734Z,42.53
2023-03-19T02:34:39.728Z,42.53
2023-03-19T02:35:39.739Z,43.66
2023-03-19T02:36:39.697Z,41.73
2023-03-19T02:37:39.687Z,42.37
2023-03-19T02:38:39.671Z,43.50
2023-03-19T02:39:39.676Z,41.25
2023-03-19T02:40:39.654Z,45.76
2023-03-19T02:41:39.651Z,44.15
2023-03-19T02:42:39.643Z,42.70
2023-03-19T02:43:39.630Z,41.08
2023-03-19T02:44:39.603Z,42.05
2023-03-19T02:45:39.584Z,42.05
2023-03-19T02:46:39.668Z,41.73
2023-03-19T02:47:39.555Z,41.25
2023-03-19T02:48:39.543Z,43.50
2023-03-19T02:49:39.540Z,42.86
2023-03-19T02:50:39.525Z,43.18
2023-03-19T02:51:39.511Z,44.31
2023-03-19T02:52:39.493Z,43.66
2023-03-19T02:53:39.492Z,42.37
2023-03-19T02:54:39.468Z,43.98
2023-03-19T02:55:39.460Z,43.50
2023-03-19T02:56:39.446Z,41.89
2023-03-19T02:57:39.429Z,43.82
2023-03-19T02:58:39.427Z,42.21
2023-03-19T02:59:39.424Z,43.02
2023-03-19T03:00:39.488Z,44.79
2023-03-19T03:01:39.429Z,42.53
2023-03-19T03:02:39.369Z,43.98
2023-03-19T03:03:39.360Z,42.37
2023-03-19T03:04:39.362Z,42.21
2023-03-19T03:05:39.335Z,42.05
2023-03-19T03:06:39.329Z,44.47
2023-03-19T03:07:39.305Z,43.18
2023-03-19T03:08:39.297Z,43.34
2023-03-19T03:09:39.298Z,42.21
2023-03-19T03:10:39.280Z,43.02
2023-03-19T03:11:39.253Z,42.86
2023-03-19T03:12:39.255Z,43.82
2023-03-19T03:13:39.238Z,43.18
2023-03-19T03:14:39.227Z,45.11
2023-03-19T03:15:39.234Z,42.05
2023-03-19T03:16:39.260Z,41.25
2023-03-19T03:17:39.181Z,43.02
2023-03-19T03:18:39.172Z,42.37
2023-03-19T03:19:39.165Z,41.89
2023-03-19T03:20:39.144Z,41.89
2023-03-19T03:21:39.128Z,41.73
2023-03-19T03:22:39.120Z,41.89
2023-03-19T03:23:39.111Z,42.21
2023-03-19T03:24:39.095Z,41.57
2023-03-19T03:25:39.081Z,42.53
2023-03-19T03:26:39.066Z,42.21
2023-03-19T03:27:39.059Z,41.08
2023-03-19T03:28:39.041Z,41.57
2023-03-19T03:29:39.028Z,41.89
2023-03-19T03:30:39.019Z,42.86
2023-03-19T03:31:39.072Z,41.57
2023-03-19T03:32:39.046Z,41.41
2023-03-19T03:33:38.975Z,41.08
2023-03-19T03:34:38.962Z,41.25
2023-03-19T03:35:38.989Z,41.08
2023-03-19T03:36:38.940Z,41.25
2023-03-19T03:38:38.912Z,40.28
2023-03-19T03:39:38.901Z,42.21
2023-03-19T03:40:38.892Z,40.76
2023-03-19T03:41:38.871Z,41.73
2023-03-19T03:42:38.862Z,40.92
2023-03-19T03:43:38.845Z,44.63
2023-03-19T03:44:38.832Z,41.57
2023-03-19T03:45:38.906Z,45.11
2023-03-19T03:46:38.805Z,43.02
2023-03-19T03:47:38.835Z,40.60
2023-03-19T03:48:38.782Z,42.37
2023-03-19T03:49:38.766Z,41.89
2023-03-19T03:50:38.758Z,41.25
2023-03-19T03:51:38.741Z,42.53
2023-03-19T03:52:38.731Z,40.44
2023-03-19T03:53:38.713Z,41.08
2023-03-19T03:54:38.708Z,41.41
2023-03-19T03:55:38.688Z,41.89
2023-03-19T03:56:38.678Z,41.25
2023-03-19T03:57:38.670Z,42.70
2023-03-19T03:58:38.653Z,42.21
2023-03-19T03:59:38.643Z,41.89
2023-03-19T04:00:38.624Z,41.41
2023-03-19T04:01:38.609Z,43.34
2023-03-19T04:02:38.652Z,48.17
2023-03-19T04:03:38.715Z,42.86
2023-03-19T04:04:38.573Z,44.31
2023-03-19T04:05:38.564Z,43.02
2023-03-19T04:06:38.549Z,42.21
2023-03-19T04:07:38.556Z,43.50
2023-03-19T04:08:38.521Z,43.02
2023-03-19T04:09:38.506Z,46.88
2023-03-19T04:10:38.497Z,51.24
2023-03-19T04:11:38.489Z,46.88
2023-03-19T04:12:38.468Z,44.95
2023-03-19T04:13:38.455Z,46.24
2023-03-19T04:14:38.442Z,48.01
2023-03-19T04:15:38.431Z,46.08
2023-03-19T04:16:38.462Z,43.82
2023-03-19T04:17:38.402Z,43.18
2023-03-19T04:18:38.393Z,43.66
2023-03-19T04:19:38.407Z,44.31
2023-03-19T04:20:38.386Z,43.02
2023-03-19T04:21:38.359Z,43.82
2023-03-19T04:22:38.340Z,44.95
2023-03-19T04:23:38.328Z,42.86
2023-03-19T04:24:38.312Z,42.86
2023-03-19T04:25:38.299Z,43.34
2023-03-19T04:26:38.286Z,43.98
2023-03-19T04:27:38.275Z,43.02
2023-03-19T04:28:38.266Z,44.47
2023-03-19T04:29:38.247Z,48.33
2023-03-19T04:30:38.687Z,44.15
2023-03-19T04:31:38.258Z,43.34
2023-03-19T04:32:38.289Z,52.20
2023-03-19T04:33:38.193Z,43.82
2023-03-19T04:34:38.184Z,43.66
2023-03-19T04:35:38.216Z,44.15
2023-03-19T04:36:38.161Z,43.98
2023-03-19T04:37:38.157Z,50.11
2023-03-19T04:38:38.146Z,47.05
2023-03-19T04:39:38.131Z,45.43
2023-03-19T04:40:38.108Z,43.66
2023-03-19T04:41:38.092Z,44.47
2023-03-19T04:42:38.084Z,44.15
2023-03-19T04:43:38.063Z,46.24
2023-03-19T04:44:38.064Z,45.76
2023-03-19T04:45:38.045Z,47.69
2023-03-19T04:46:38.028Z,48.01
2023-03-19T04:47:38.019Z,45.76
2023-03-19T04:48:38.002Z,44.79
2023-03-19T04:49:37.994Z,47.85
2023-03-19T04:50:37.974Z,46.88
2023-03-19T04:51:37.985Z,47.37
2023-03-19T04:52:37.955Z,49.62
2023-03-19T04:53:37.996Z,63.48
2023-03-19T04:54:37.933Z,45.92
2023-03-19T04:55:37.916Z,62.35
2023-03-19T04:56:37.898Z,54.62
2023-03-19T04:57:37.892Z,52.20
2023-03-19T04:58:37.873Z,59.61
2023-03-19T04:59:37.857Z,46.40
2023-03-19T05:00:37.847Z,44.79
2023-03-19T05:01:37.918Z,46.56
2023-03-19T05:02:37.821Z,48.01
2023-03-19T05:03:37.831Z,47.21
2023-03-19T05:04:37.797Z,47.53
2023-03-19T05:05:37.780Z,43.82
2023-03-19T05:06:37.812Z,45.60
2023-03-19T05:07:37.781Z,45.27
2023-03-19T05:08:37.745Z,52.20
2023-03-19T05:09:37.728Z,45.60
2023-03-19T05:10:37.718Z,43.34
2023-03-19T05:11:37.704Z,44.63
2023-03-19T05:12:37.695Z,43.82
2023-03-19T05:13:37.680Z,45.92
2023-03-19T05:14:37.666Z,44.31
2023-03-19T05:15:37.671Z,44.31
2023-03-19T05:16:37.638Z,42.86
2023-03-19T05:17:37.626Z,42.37
2023-03-19T05:18:39.447Z,46.88
2023-03-19T05:19:37.600Z,46.24
2023-03-19T05:20:37.589Z,44.79
2023-03-19T05:21:37.578Z,46.40
2023-03-19T05:22:37.567Z,46.08
2023-03-19T05:23:37.570Z,45.92
2023-03-19T05:24:37.536Z,47.21
2023-03-19T05:25:37.533Z,49.14
2023-03-19T05:26:37.525Z,45.43
2023-03-19T05:27:37.494Z,46.88
2023-03-19T05:28:37.514Z,52.20
2023-03-19T05:29:39.798Z,43.82
2023-03-19T05:30:37.457Z,45.11
2023-03-19T05:31:37.447Z,47.37
2023-03-19T05:32:37.464Z,45.43
2023-03-19T05:33:37.421Z,43.82
2023-03-19T05:34:37.408Z,43.82
2023-03-19T05:35:37.508Z,48.98
2023-03-19T05:36:37.380Z,44.95
2023-03-19T05:37:37.367Z,43.50
2023-03-19T05:38:37.352Z,44.95
2023-03-19T05:39:37.364Z,44.63
2023-03-19T05:40:37.324Z,45.76
2023-03-19T05:41:37.316Z,44.15
2023-03-19T05:42:37.301Z,45.11
2023-03-19T05:43:37.308Z,48.01
2023-03-19T05:44:37.275Z,44.63
2023-03-19T05:45:37.264Z,46.72
2023-03-19T05:46:37.321Z,47.21
2023-03-19T05:47:37.250Z,43.66
2023-03-19T05:48:37.228Z,44.31
2023-03-19T05:49:37.213Z,51.07
2023-03-19T05:50:37.199Z,45.27
2023-03-19T05:51:37.182Z,45.11
2023-03-19T05:52:37.191Z,45.11
2023-03-19T05:53:37.159Z,46.08
2023-03-19T05:54:37.146Z,52.20
2023-03-19T05:55:37.284Z,46.88
2023-03-19T05:56:37.116Z,51.88
2023-03-19T05:57:37.108Z,48.33
2023-03-19T05:58:37.089Z,50.75
2023-03-19T05:59:37.077Z,48.17
2023-03-19T06:00:37.067Z,43.82
2023-03-19T06:01:37.053Z,48.50
2023-03-19T06:02:37.083Z,56.71
2023-03-19T06:03:37.186Z,48.66
2023-03-19T06:04:37.015Z,45.11
2023-03-19T06:05:37.038Z,49.79
2023-03-19T06:06:36.985Z,44.79
2023-03-19T06:07:37.002Z,44.15
2023-03-19T06:08:36.956Z,43.82
2023-03-19T06:09:36.955Z,43.34
2023-03-19T06:10:36.938Z,42.53
2023-03-19T06:11:36.950Z,43.18
2023-03-19T06:12:36.910Z,44.31
2023-03-19T06:13:36.898Z,45.60
2023-03-19T06:14:36.886Z,42.70
2023-03-19T06:15:36.879Z,44.95
2023-03-19T06:16:36.852Z,43.66
2023-03-19T06:17:36.843Z,48.66
2023-03-19T06:18:36.843Z,47.37
2023-03-19T06:19:36.814Z,47.37
2023-03-19T06:20:36.890Z,46.40
2023-03-19T06:21:36.787Z,46.72
2023-03-19T06:22:36.784Z,52.20
2023-03-19T06:23:36.778Z,52.36
2023-03-19T06:24:36.752Z,50.43
2023-03-19T06:25:36.736Z,51.24
2023-03-19T06:26:36.720Z,44.47
2023-03-19T06:27:36.738Z,44.63
2023-03-19T06:28:36.713Z,44.79
2023-03-19T06:29:36.695Z,45.43
2023-03-19T06:30:36.867Z,44.95
2023-03-19T06:31:36.678Z,45.27
2023-03-19T06:32:36.704Z,44.95
2023-03-19T06:33:36.634Z,45.43
2023-03-19T06:34:36.621Z,45.60
2023-03-19T06:35:36.635Z,45.92
2023-03-19T06:36:36.596Z,45.27
2023-03-19T06:37:36.585Z,44.63
2023-03-19T06:38:36.575Z,46.24
2023-03-19T06:39:36.563Z,47.37
2023-03-19T06:40:36.602Z,47.37
2023-03-19T06:41:36.535Z,45.76
2023-03-19T06:42:36.567Z,44.47
2023-03-19T06:43:36.535Z,54.46
2023-03-19T06:44:36.498Z,45.27
2023-03-19T06:45:36.539Z,46.24
2023-03-19T06:46:36.470Z,49.30
2023-03-19T06:47:36.458Z,45.11
2023-03-19T06:48:36.444Z,49.14
2023-03-19T06:49:36.436Z,46.88
2023-03-19T06:50:36.418Z,45.60
2023-03-19T06:51:36.406Z,45.11
2023-03-19T06:52:36.391Z,44.15
2023-03-19T06:53:36.389Z,44.15
2023-03-19T06:54:38.365Z,46.88
2023-03-19T06:55:36.359Z,45.27
2023-03-19T06:56:36.356Z,45.43
2023-03-19T06:57:36.336Z,59.45
2023-03-19T06:58:36.308Z,44.31
2023-03-19T06:59:36.325Z,44.15
2023-03-19T07:00:36.748Z,45.27
2023-03-19T07:01:36.271Z,45.27
2023-03-19T07:02:36.256Z,46.24
2023-03-19T07:03:36.244Z,46.40
2023-03-19T07:04:36.275Z,54.30
2023-03-19T07:05:36.215Z,46.40
2023-03-19T07:06:36.202Z,62.35
2023-03-19T07:07:36.189Z,44.47
2023-03-19T07:08:36.177Z,45.11
2023-03-19T07:09:36.162Z,44.79
2023-03-19T07:10:36.669Z,45.11
2023-03-19T07:11:36.231Z,45.27
2023-03-19T07:12:36.122Z,44.31
2023-03-19T07:13:36.109Z,46.24
2023-03-19T07:14:36.096Z,43.50
2023-03-19T07:15:36.118Z,50.11
2023-03-19T07:16:36.100Z,45.43
2023-03-19T07:17:36.058Z,44.63
2023-03-19T07:18:36.057Z,44.63
2023-03-19T07:19:36.038Z,43.66
2023-03-19T07:20:36.605Z,60.90
2023-03-19T07:21:36.004Z,63.00
2023-03-19T07:22:35.993Z,46.88
2023-03-19T07:23:35.980Z,46.40
2023-03-19T07:24:35.963Z,44.95
2023-03-19T07:25:35.952Z,46.56
2023-03-19T07:26:35.936Z,43.18
2023-03-19T07:27:35.926Z,45.92
2023-03-19T07:28:35.915Z,45.27
2023-03-19T07:29:35.905Z,45.43
2023-03-19T07:30:36.254Z,47.21
2023-03-19T07:31:35.991Z,45.43
2023-03-19T07:32:35.918Z,47.05
2023-03-19T07:33:35.850Z,45.27
2023-03-19T07:34:35.834Z,45.11
2023-03-19T07:35:35.849Z,44.79
2023-03-19T07:36:35.805Z,47.21
2023-03-19T07:37:35.792Z,46.88
2023-03-19T07:39:35.767Z,44.79
2023-03-19T07:40:36.197Z,44.31
2023-03-19T07:41:35.740Z,46.40
2023-03-19T07:42:35.725Z,46.88
2023-03-19T07:43:35.712Z,47.37
2023-03-19T07:44:35.697Z,45.60
2023-03-19T07:45:35.752Z,44.95
2023-03-19T07:46:35.672Z,47.69
2023-03-19T07:47:35.684Z,46.08
2023-03-19T07:48:35.648Z,47.05
2023-03-19T07:49:35.634Z,45.92
2023-03-19T07:50:36.006Z,45.43
2023-03-19T07:51:35.625Z,47.37
2023-03-19T07:52:35.607Z,49.62
2023-03-19T07:53:35.581Z,45.60
2023-03-19T07:54:35.578Z,46.40
2023-03-19T07:55:37.258Z,46.72
2023-03-19T07:56:35.546Z,46.88
2023-03-19T07:57:35.560Z,45.92
2023-03-19T07:58:35.525Z,46.24
2023-03-19T07:59:35.510Z,44.47
2023-03-19T08:00:35.967Z,45.11
2023-03-19T08:01:35.481Z,46.72
2023-03-19T08:02:35.523Z,43.66
2023-03-19T08:03:35.478Z,43.34
2023-03-19T08:04:35.468Z,42.86
2023-03-19T08:05:35.434Z,44.63
2023-03-19T08:06:35.408Z,42.86
2023-03-19T08:07:35.399Z,45.27
2023-03-19T08:08:35.644Z,44.95
2023-03-19T08:09:35.368Z,44.15
2023-03-19T08:10:37.429Z,43.98
2023-03-19T08:11:35.343Z,44.47
2023-03-19T08:12:35.329Z,42.21
2023-03-19T08:13:35.322Z,44.63
2023-03-19T08:14:35.302Z,45.27
2023-03-19T08:15:35.290Z,58.49
2023-03-19T08:16:35.312Z,45.76
2023-03-19T08:17:35.265Z,43.50
2023-03-19T08:18:35.249Z,45.27
2023-03-19T08:19:35.261Z,44.63
2023-03-19T08:20:35.559Z,48.98
2023-03-19T08:21:35.210Z,47.69
2023-03-19T08:22:35.217Z,44.95
2023-03-19T08:23:35.196Z,52.04
2023-03-19T08:24:35.170Z,42.86
2023-03-19T08:25:35.170Z,44.31
2023-03-19T08:26:35.143Z,42.70
2023-03-19T08:27:35.136Z,44.63
2023-03-19T08:28:35.117Z,45.76
2023-03-19T08:29:35.120Z,45.60
2023-03-19T08:30:35.607Z,45.43
2023-03-19T08:31:35.081Z,43.50
2023-03-19T08:32:35.107Z,45.76
2023-03-19T08:33:35.053Z,46.24
2023-03-19T08:34:35.042Z,44.63
2023-03-19T08:35:35.075Z,46.08
2023-03-19T08:36:35.014Z,45.60
2023-03-19T08:37:35.001Z,49.46
2023-03-19T08:38:34.991Z,45.76
2023-03-19T08:39:34.975Z,45.27
2023-03-19T08:40:35.327Z,46.88
2023-03-19T08:41:34.948Z,52.04
2023-03-19T08:42:34.933Z,44.15
2023-03-19T08:43:34.921Z,44.15
2023-03-19T08:44:34.906Z,45.27
2023-03-19T08:45:34.894Z,43.34
2023-03-19T08:46:34.946Z,47.69
2023-03-19T08:47:34.875Z,53.49
2023-03-19T08:48:34.865Z,49.14
2023-03-19T08:49:34.850Z,51.56
2023-03-19T08:50:35.131Z,52.52
2023-03-19T08:51:34.854Z,48.66
2023-03-19T08:52:34.812Z,48.98
2023-03-19T08:53:34.790Z,48.01
2023-03-19T08:54:34.777Z,48.98
2023-03-19T08:55:34.759Z,46.24
2023-03-19T08:56:34.749Z,47.53
2023-03-19T08:57:34.737Z,45.60
2023-03-19T08:58:34.756Z,43.82
2023-03-19T08:59:34.712Z,42.70
2023-03-19T09:00:35.030Z,44.15
2023-03-19T09:01:34.724Z,42.86
2023-03-19T09:02:34.679Z,43.66
2023-03-19T09:03:34.661Z,42.21
2023-03-19T09:04:34.686Z,43.18
2023-03-19T09:05:34.634Z,45.43
2023-03-19T09:06:34.621Z,44.31
2023-03-19T09:07:34.767Z,45.11
2023-03-19T09:08:34.597Z,43.98
2023-03-19T09:09:34.586Z,41.73
2023-03-19T09:10:34.864Z,41.73
2023-03-19T09:11:34.613Z,42.70
2023-03-19T09:12:34.542Z,45.11
2023-03-19T09:13:34.528Z,42.21
2023-03-19T09:14:34.515Z,42.53
2023-03-19T09:15:34.698Z,42.37
2023-03-19T09:16:34.489Z,44.15
2023-03-19T09:17:34.478Z,45.11
2023-03-19T09:18:34.462Z,43.18
2023-03-19T09:19:34.459Z,42.86
2023-03-19T09:20:34.435Z,44.31
2023-03-19T09:21:34.423Z,53.17
2023-03-19T09:22:34.415Z,42.53
2023-03-19T09:23:34.420Z,68.80
2023-03-19T09:24:34.381Z,59.61
2023-03-19T09:25:34.705Z,59.13
2023-03-19T09:26:34.361Z,41.89
2023-03-19T09:27:34.342Z,42.53
2023-03-19T09:28:34.329Z,43.34
2023-03-19T09:29:34.335Z,43.50
2023-03-19T09:30:34.300Z,43.34
2023-03-19T09:31:34.354Z,42.70
2023-03-19T09:32:34.317Z,42.05
2023-03-19T09:33:34.268Z,41.89
2023-03-19T09:34:34.249Z,45.76
2023-03-19T09:35:34.711Z,45.11
2023-03-19T09:36:34.219Z,44.31
2023-03-19T09:37:34.211Z,48.01
2023-03-19T09:38:34.192Z,45.27
2023-03-19T09:39:34.203Z,46.88
2023-03-19T09:40:34.169Z,43.34
2023-03-19T09:41:34.156Z,43.34
2023-03-19T09:42:34.139Z,45.60
2023-03-19T09:43:34.131Z,44.47
2023-03-19T09:44:34.114Z,45.76
2023-03-19T09:45:34.362Z,44.79
2023-03-19T09:46:34.191Z,49.30
2023-03-19T09:47:34.070Z,44.95
2023-03-19T09:48:34.059Z,43.82
2023-03-19T09:49:34.060Z,43.34
2023-03-19T09:50:34.037Z,43.98
2023-03-19T09:51:34.018Z,45.11
2023-03-19T09:52:34.007Z,44.63
2023-03-19T09:53:33.991Z,44.79
2023-03-19T09:54:33.978Z,44.31
2023-03-19T09:55:34.300Z,44.15
2023-03-19T09:56:33.954Z,43.82
2023-03-19T09:57:33.940Z,44.63
2023-03-19T09:58:33.928Z,46.56
2023-03-19T09:59:33.917Z,43.66
2023-03-19T10:00:33.901Z,41.41
2023-03-19T10:01:33.944Z,43.34
2023-03-19T10:02:33.876Z,43.82
2023-03-19T10:03:33.891Z,42.86
2023-03-19T10:04:33.866Z,44.79
2023-03-19T10:05:34.122Z,41.89
2023-03-19T10:06:33.857Z,54.78
2023-03-19T10:07:33.803Z,42.37
2023-03-19T10:08:33.819Z,41.25
2023-03-19T10:09:33.796Z,41.41
2023-03-19T10:10:33.766Z,41.89
2023-03-19T10:11:33.778Z,40.44
2023-03-19T10:12:33.746Z,41.25
2023-03-19T10:13:33.724Z,40.28
2023-03-19T10:14:33.712Z,43.34
2023-03-19T10:15:34.108Z,41.73
2023-03-19T10:16:33.785Z,45.27
2023-03-19T10:17:33.674Z,42.21
2023-03-19T10:18:33.659Z,41.89
2023-03-19T10:19:33.796Z,50.11
2023-03-19T10:20:33.634Z,43.82
2023-03-19T10:21:33.620Z,40.92
2023-03-19T10:22:33.607Z,43.34
2023-03-19T10:23:33.603Z,44.95
2023-03-19T10:24:33.580Z,40.28
2023-03-19T10:25:33.945Z,41.08
2023-03-19T10:26:33.554Z,41.08
2023-03-19T10:27:33.567Z,45.27
2023-03-19T10:28:33.532Z,42.86
2023-03-19T10:29:33.515Z,40.76
2023-03-19T10:30:33.509Z,40.12
2023-03-19T10:31:33.494Z,44.31
2023-03-19T10:32:33.504Z,40.76
2023-03-19T10:33:33.491Z,43.82
2023-03-19T10:34:33.449Z,41.25
2023-03-19T10:35:33.752Z,40.44
2023-03-19T10:36:33.427Z,42.05
2023-03-19T10:37:33.411Z,40.28
2023-03-19T10:38:33.402Z,40.60
2023-03-19T10:39:33.385Z,40.76
2023-03-19T10:40:33.372Z,41.73
2023-03-19T10:41:33.359Z,41.25
2023-03-19T10:42:33.533Z,40.76
2023-03-19T10:43:33.358Z,40.12
2023-03-19T10:44:33.319Z,41.57
2023-03-19T10:45:33.786Z,45.27
2023-03-19T10:46:33.294Z,45.11
2023-03-19T10:47:33.283Z,40.92
2023-03-19T10:48:33.267Z,40.12
2023-03-19T10:49:33.251Z,39.79
2023-03-19T10:50:33.239Z,40.12
2023-03-19T10:51:33.226Z,40.76
2023-03-19T10:52:33.213Z,42.37
2023-03-19T10:53:33.198Z,43.18
2023-03-19T10:54:33.186Z,41.25
2023-03-19T10:55:33.550Z,43.66
2023-03-19T10:56:33.161Z,49.30
2023-03-19T10:57:33.148Z,42.21
2023-03-19T10:58:33.136Z,41.41
2023-03-19T10:59:33.147Z,45.92
2023-03-19T11:00:33.113Z,44.31
2023-03-19T11:01:33.180Z,42.86
2023-03-19T11:02:33.081Z,49.46
2023-03-19T11:03:33.168Z,46.88
2023-03-19T11:04:33.056Z,41.25
2023-03-19T11:05:33.697Z,42.21
2023-03-19T11:06:33.029Z,40.12
2023-03-19T11:07:33.014Z,43.02
2023-03-19T11:08:35.826Z,40.44
2023-03-19T11:09:32.986Z,48.17
2023-03-19T11:10:32.975Z,41.41
2023-03-19T11:11:32.959Z,59.61
2023-03-19T11:12:32.948Z,59.61
2023-03-19T11:13:32.934Z,47.37
2023-03-19T11:14:32.920Z,45.76
2023-03-19T11:15:33.284Z,46.24
2023-03-19T11:16:32.939Z,42.05
2023-03-19T11:17:32.886Z,43.18
2023-03-19T11:18:32.870Z,40.28
2023-03-19T11:19:32.854Z,42.70
2023-03-19T11:20:32.839Z,41.73
2023-03-19T11:21:32.835Z,45.92
2023-03-19T11:22:32.840Z,49.46
2023-03-19T11:23:32.813Z,44.31
2023-03-19T11:24:32.789Z,41.73
2023-03-19T11:25:33.101Z,41.08
2023-03-19T11:26:32.768Z,39.96
2023-03-19T11:27:32.756Z,39.79
2023-03-19T11:28:32.740Z,40.76
2023-03-19T11:29:32.735Z,40.12
2023-03-19T11:30:32.712Z,40.12
2023-03-19T11:31:32.725Z,40.12
2023-03-19T11:32:32.861Z,44.31
2023-03-19T11:33:32.670Z,40.92
2023-03-19T11:34:32.655Z,41.41
2023-03-19T11:35:33.336Z,49.30
2023-03-19T11:36:32.632Z,50.11
2023-03-19T11:37:32.638Z,48.01
2023-03-19T11:38:32.615Z,50.59
2023-03-19T11:40:32.587Z,47.85
2023-03-19T11:41:32.566Z,44.15
2023-03-19T11:42:32.553Z,43.82
2023-03-19T11:43:32.559Z,43.66
2023-03-19T11:44:32.527Z,42.53
2023-03-19T11:45:32.905Z,44.63
2023-03-19T11:46:32.552Z,42.86
2023-03-19T11:47:32.506Z,41.08
2023-03-19T11:48:32.490Z,43.02
2023-03-19T11:49:32.461Z,43.34
2023-03-19T11:50:32.449Z,47.21
2023-03-19T11:51:32.439Z,42.86
2023-03-19T11:52:32.429Z,42.53
2023-03-19T11:53:32.416Z,43.34
2023-03-19T11:54:32.397Z,41.89
2023-03-19T11:55:32.847Z,44.79
2023-03-19T11:56:32.370Z,44.95
2023-03-19T11:57:32.359Z,43.02
2023-03-19T11:58:32.342Z,45.92
2023-03-19T11:59:32.336Z,47.21
2023-03-19T12:00:32.320Z,63.32
2023-03-19T12:01:32.301Z,69.28
2023-03-19T12:02:32.391Z,65.90
2023-03-19T12:03:32.309Z,64.93
2023-03-19T12:04:32.265Z,74.12
2023-03-19T12:05:32.663Z,62.84
2023-03-19T12:06:32.251Z,64.77
2023-03-19T12:07:32.229Z,68.32
2023-03-19T12:08:32.224Z,59.13
2023-03-19T12:09:32.204Z,62.51
2023-03-19T12:10:32.411Z,66.06
2023-03-19T12:11:32.189Z,59.61
2023-03-19T12:12:32.184Z,63.96
2023-03-19T12:13:32.163Z,70.25
2023-03-19T12:14:32.143Z,72.99
2023-03-19T12:15:32.354Z,61.23
2023-03-19T12:16:32.127Z,66.54
2023-03-19T12:17:32.094Z,65.74
2023-03-19T12:18:32.082Z,63.48
2023-03-19T12:19:32.107Z,60.10
2023-03-19T12:20:32.064Z,66.87
2023-03-19T12:21:32.042Z,57.84
2023-03-19T12:22:32.039Z,54.94
2023-03-19T12:23:34.070Z,52.69
2023-03-19T12:24:32.000Z,49.62
2023-03-19T12:25:32.006Z,44.31
2023-03-19T12:26:31.977Z,50.59
2023-03-19T12:27:31.962Z,45.60
2023-03-19T12:28:31.961Z,47.85
2023-03-19T12:29:31.933Z,49.95
2023-03-19T12:30:31.923Z,46.72
2023-03-19T12:31:32.032Z,49.14
2023-03-19T12:32:31.903Z,51.07
2023-03-19T12:33:31.884Z,51.07
2023-03-19T12:34:31.870Z,50.75
2023-03-19T12:35:31.970Z,48.66
2023-03-19T12:36:31.842Z,45.92
2023-03-19T12:37:31.827Z,45.92
2023-03-19T12:38:31.837Z,43.02
2023-03-19T12:39:31.814Z,42.53
2023-03-19T12:40:31.788Z,41.57
2023-03-19T12:41:31.772Z,43.34
2023-03-19T12:42:31.761Z,43.02
2023-03-19T12:43:31.745Z,45.11
2023-03-19T12:44:31.733Z,43.02
2023-03-19T12:45:31.726Z,46.56
2023-03-19T12:46:31.820Z,45.92
2023-03-19T12:47:31.707Z,56.07
2023-03-19T12:48:31.684Z,45.27
2023-03-19T12:49:31.669Z,48.66
2023-03-19T12:50:31.782Z,48.82
2023-03-19T12:51:31.666Z,43.34
2023-03-19T12:52:31.630Z,48.66
2023-03-19T12:53:31.616Z,45.43
2023-03-19T12:54:31.617Z,43.82
2023-03-19T12:55:31.618Z,45.43